Time;durP1;ratioP1;P1;durP2;ratioP2;P2;SDS_P1;SDS_P2;PMS_P1;PMS_P2;Temp;Humidity;BMP_temperature;BMP_pressure;BME280_temperature;BME280_humidity;BME280_pressure;Samples;Min_cycle;Max_cycle;Signal;HPM_P1;HPM_P2
2023/05/04 00:00:00;;;;;;;11.23;6.18;;;;;;;;;;5084836;28;20048;-81
2023/05/04 00:02:26;;;;;;;10.82;6.32;;;;;;;;;;5085120;28;20045;-82
2023/05/04 00:04:52;;;;;;;12.43;6.32;;;;;;;;;;5084142;28;20036;-82
2023/05/04 00:07:19;;;;;;;12.07;6.68;;;;;;;;;;5085616;28;20178;-82
2023/05/04 00:09:45;;;;;;;10.27;6.22;;;;;;;;;;5085117;28;20056;-82
2023/05/04 00:12:11;;;;;;;11.50;7.07;;;;;;;;;;5080085;28;20043;-82
2023/05/04 00:14:37;;;;;;;13.80;6.80;;;;;;;;;;5084538;28;20036;-82
2023/05/04 00:17:05;;;;;;;11.90;6.80;;;;;;;;;;5082035;28;20493;-86
2023/05/04 00:19:39;;;;;;;12.93;7.07;;;;;;;;;;5085707;28;20479;-81
2023/05/04 00:22:06;;;;;;;11.55;6.93;;;;;;;;;;5083820;28;20131;-82
2023/05/04 00:24:32;;;;;;;12.30;7.13;;;;;;;;;;5085521;28;20044;-82
2023/05/04 00:26:58;;;;;;;11.10;6.45;;;;;;;;;;5084824;28;20051;-82
2023/05/04 00:29:24;;;;;;;14.38;6.70;;;;;;;;;;5085203;28;20044;-81
2023/05/04 00:31:50;;;;;;;14.50;7.75;;;;;;;;;;5086853;28;20094;-82
2023/05/04 00:34:17;;;;;;;13.48;6.68;;;;;;;;;;5087448;28;20495;-82
2023/05/04 00:36:43;;;;;;;13.07;6.93;;;;;;;;;;5085840;28;20055;-82
2023/05/04 00:39:09;;;;;;;13.82;7.10;;;;;;;;;;5098667;28;20053;-83
2023/05/04 00:41:35;;;;;;;14.18;7.07;;;;;;;;;;5086511;28;20040;-82
2023/05/04 00:44:03;;;;;;;13.60;7.65;;;;;;;;;;5085739;28;20040;-81
2023/05/04 00:46:29;;;;;;;13.63;7.78;;;;;;;;;;5083625;28;20048;-82
2023/05/04 00:48:55;;;;;;;18.60;8.00;;;;;;;;;;5086105;28;20052;-83
2023/05/04 00:51:23;;;;;;;17.67;8.63;;;;;;;;;;5084947;28;20063;-82
2023/05/04 00:53:49;;;;;;;12.90;7.50;;;;;;;;;;5085542;28;20056;-82
2023/05/04 00:56:16;;;;;;;16.92;8.07;;;;;;;;;;5084907;28;20052;-82
2023/05/04 00:58:42;;;;;;;13.82;8.07;;;;;;;;;;5084915;28;20040;-82
2023/05/04 01:01:08;;;;;;;13.35;7.60;;;;;;;;;;5084126;28;20037;-82
2023/05/04 01:03:34;;;;;;;15.25;8.52;;;;;;;;;;5082564;28;20096;-81
2023/05/04 01:06:19;;;;;;;14.60;8.30;;;;;;;;;;5065532;28;20064;-83
2023/05/04 01:08:49;;;;;;;14.48;7.65;;;;;;;;;;5063974;28;20512;-82
2023/05/04 01:11:20;;;;;;;16.02;8.15;;;;;;;;;;5074155;28;20050;-83
2023/05/04 01:13:47;;;;;;;12.98;7.68;;;;;;;;;;5086197;28;20045;-82
2023/05/04 01:16:13;;;;;;;11.65;7.78;;;;;;;;;;5084826;28;20094;-81
2023/05/04 01:18:39;;;;;;;18.92;8.00;;;;;;;;;;5085335;28;20052;-81
2023/05/04 01:21:05;;;;;;;15.95;8.18;;;;;;;;;;5084193;28;20514;-83
2023/05/04 01:23:31;;;;;;;19.10;8.85;;;;;;;;;;5085268;28;20071;-82
2023/05/04 01:26:02;;;;;;;14.23;8.30;;;;;;;;;;5085036;28;20498;-82
2023/05/04 01:28:49;;;;;;;13.00;7.88;;;;;;;;;;5086098;28;20036;-82
2023/05/04 01:31:17;;;;;;;12.73;7.95;;;;;;;;;;5087700;28;20049;-82
2023/05/04 01:33:44;;;;;;;14.95;8.27;;;;;;;;;;5085774;28;20044;-82
2023/05/04 01:36:10;;;;;;;17.52;8.30;;;;;;;;;;5086123;28;20036;-81
2023/05/04 01:38:36;;;;;;;13.23;7.90;;;;;;;;;;5084788;28;20045;-81
2023/05/04 01:41:02;;;;;;;18.75;7.95;;;;;;;;;;5082211;28;20048;-82
2023/05/04 01:43:28;;;;;;;15.63;8.73;;;;;;;;;;5083749;28;20052;-82
2023/05/04 01:45:54;;;;;;;16.15;7.80;;;;;;;;;;5082129;28;20099;-82
2023/05/04 01:48:20;;;;;;;13.93;8.35;;;;;;;;;;5070715;28;20041;-87
2023/05/04 01:50:46;;;;;;;17.33;9.35;;;;;;;;;;5086476;28;20051;-83
2023/05/04 01:53:12;;;;;;;14.30;8.50;;;;;;;;;;5083550;28;20109;-82
2023/05/04 01:55:38;;;;;;;15.98;8.90;;;;;;;;;;5082968;28;20056;-82
2023/05/04 01:58:04;;;;;;;14.35;9.18;;;;;;;;;;5082871;28;20051;-81
2023/05/04 02:00:31;;;;;;;16.27;9.18;;;;;;;;;;5081650;28;20499;-82
2023/05/04 02:02:57;;;;;;;16.38;9.00;;;;;;;;;;5082525;28;20051;-82
2023/05/04 02:05:23;;;;;;;18.45;10.00;;;;;;;;;;5083088;28;20572;-81
2023/05/04 02:07:49;;;;;;;17.17;8.93;;;;;;;;;;5083497;28;20048;-83
2023/05/04 02:10:15;;;;;;;17.98;8.88;;;;;;;;;;5083094;28;20059;-82
2023/05/04 02:12:41;;;;;;;13.43;9.05;;;;;;;;;;5082541;28;20067;-82
2023/05/04 02:15:08;;;;;;;13.52;8.73;;;;;;;;;;5082585;28;20055;-82
2023/05/04 02:17:34;;;;;;;16.73;9.02;;;;;;;;;;5082703;28;20410;-83
2023/05/04 02:20:00;;;;;;;15.27;9.30;;;;;;;;;;5082867;28;20040;-82
2023/05/04 02:22:26;;;;;;;14.45;8.15;;;;;;;;;;5083154;28;20049;-82
2023/05/04 02:24:52;;;;;;;21.13;9.60;;;;;;;;;;5081196;28;20403;-82
2023/05/04 02:27:18;;;;;;;20.23;8.98;;;;;;;;;;5081947;28;20045;-81
2023/05/04 02:29:44;;;;;;;16.02;8.85;;;;;;;;;;5082158;28;20044;-81
2023/05/04 02:32:10;;;;;;;16.50;8.93;;;;;;;;;;5079150;28;20048;-82
2023/05/04 02:34:36;;;;;;;13.23;8.95;;;;;;;;;;5080300;28;20044;-83
2023/05/04 02:37:03;;;;;;;18.38;9.27;;;;;;;;;;5081388;28;20055;-82
2023/05/04 02:39:29;;;;;;;21.40;9.65;;;;;;;;;;5079892;28;20064;-82
2023/05/04 02:41:55;;;;;;;17.17;8.75;;;;;;;;;;5080073;28;20133;-82
2023/05/04 02:44:21;;;;;;;16.38;8.85;;;;;;;;;;5081586;28;20052;-83
2023/05/04 02:46:47;;;;;;;17.30;9.10;;;;;;;;;;5079088;28;20045;-83
2023/05/04 02:49:13;;;;;;;16.10;9.35;;;;;;;;;;5080354;28;20066;-82
2023/05/04 02:51:40;;;;;;;16.25;9.27;;;;;;;;;;5083010;28;20060;-81
2023/05/04 02:54:07;;;;;;;17.63;9.00;;;;;;;;;;5081657;28;20506;-81
2023/05/04 02:56:33;;;;;;;12.50;8.57;;;;;;;;;;5082477;28;20051;-81
2023/05/04 02:58:59;;;;;;;16.65;9.10;;;;;;;;;;5081361;28;20049;-83
2023/05/04 03:01:25;;;;;;;16.80;8.93;;;;;;;;;;5082732;28;20152;-81
2023/05/04 03:03:51;;;;;;;14.63;8.90;;;;;;;;;;5081870;28;20047;-82
2023/05/04 03:06:17;;;;;;;15.07;8.80;;;;;;;;;;5081846;28;20101;-83
2023/05/04 03:08:43;;;;;;;16.30;9.43;;;;;;;;;;5082692;28;20044;-82
2023/05/04 03:11:09;;;;;;;16.30;9.77;;;;;;;;;;5082699;28;20040;-81
2023/05/04 03:13:35;;;;;;;18.38;9.57;;;;;;;;;;5080918;28;20055;-82
2023/05/04 03:16:01;;;;;;;15.38;9.88;;;;;;;;;;5082129;28;20037;-82
2023/05/04 03:18:28;;;;;;;16.60;9.95;;;;;;;;;;5080390;28;20040;-82
2023/05/04 03:20:55;;;;;;;19.48;10.85;;;;;;;;;;5065596;28;20048;-82
2023/05/04 03:23:21;;;;;;;17.42;10.02;;;;;;;;;;5060731;28;20419;-82
2023/05/04 03:25:47;;;;;;;20.05;11.32;;;;;;;;;;5060309;28;20044;-82
2023/05/04 03:28:13;;;;;;;17.95;10.45;;;;;;;;;;5066120;28;20045;-82
2023/05/04 03:30:39;;;;;;;14.52;10.18;;;;;;;;;;5070797;28;20037;-82
2023/05/04 03:33:05;;;;;;;18.63;10.88;;;;;;;;;;5070874;28;20053;-81
2023/05/04 03:35:31;;;;;;;16.15;10.55;;;;;;;;;;5063004;28;20098;-82
2023/05/04 03:37:57;;;;;;;15.80;10.18;;;;;;;;;;5083096;28;20044;-82
2023/05/04 03:40:23;;;;;;;18.95;10.45;;;;;;;;;;5085158;28;20045;-82
2023/05/04 03:42:51;;;;;;;17.38;10.25;;;;;;;;;;5083655;28;20045;-82
2023/05/04 03:45:17;;;;;;;17.70;10.48;;;;;;;;;;5079747;28;20056;-83
2023/05/04 03:47:43;;;;;;;18.02;10.02;;;;;;;;;;5081826;28;20079;-82
2023/05/04 03:50:10;;;;;;;19.85;10.55;;;;;;;;;;5072364;28;20081;-82
2023/05/04 03:52:36;;;;;;;19.60;10.48;;;;;;;;;;5080518;28;20107;-83
2023/05/04 03:55:02;;;;;;;20.73;10.60;;;;;;;;;;5080955;28;20083;-82
2023/05/04 03:57:28;;;;;;;20.08;10.70;;;;;;;;;;5077275;28;20384;-82
2023/05/04 03:59:54;;;;;;;15.77;9.80;;;;;;;;;;5053870;28;20060;-82
2023/05/04 04:02:20;;;;;;;16.75;10.90;;;;;;;;;;5073768;28;20112;-82
2023/05/04 04:04:46;;;;;;;17.80;10.75;;;;;;;;;;5079978;28;20044;-82
2023/05/04 04:07:12;;;;;;;17.98;10.43;;;;;;;;;;5078510;28;20053;-82
2023/05/04 04:09:38;;;;;;;18.10;10.10;;;;;;;;;;5060626;28;20041;-81
2023/05/04 04:12:04;;;;;;;19.88;11.00;;;;;;;;;;5068156;28;20044;-81
2023/05/04 04:14:30;;;;;;;20.67;10.35;;;;;;;;;;5080775;28;20045;-82
2023/05/04 04:16:56;;;;;;;16.80;10.63;;;;;;;;;;5085868;28;20051;-83
2023/05/04 04:19:22;;;;;;;22.25;11.73;;;;;;;;;;5083368;28;20045;-82
2023/05/04 04:21:49;;;;;;;22.77;11.45;;;;;;;;;;5083038;28;20459;-81
2023/05/04 04:24:15;;;;;;;19.48;10.60;;;;;;;;;;5081658;28;20047;-83
2023/05/04 04:26:41;;;;;;;18.73;11.20;;;;;;;;;;5080473;28;20050;-83
2023/05/04 04:29:07;;;;;;;18.10;10.05;;;;;;;;;;5080055;28;20040;-81
2023/05/04 04:31:33;;;;;;;21.50;10.32;;;;;;;;;;5080133;28;20384;-82
2023/05/04 04:33:59;;;;;;;19.52;10.63;;;;;;;;;;5078788;28;20078;-82
2023/05/04 04:36:25;;;;;;;17.10;9.73;;;;;;;;;;5082107;28;20044;-81
2023/05/04 04:38:51;;;;;;;19.13;10.25;;;;;;;;;;5080876;28;20044;-83
2023/05/04 04:41:18;;;;;;;17.58;10.13;;;;;;;;;;5082070;28;20045;-82
2023/05/04 04:43:45;;;;;;;20.55;9.73;;;;;;;;;;5081647;28;20092;-83
2023/05/04 04:46:11;;;;;;;16.67;9.65;;;;;;;;;;5081305;28;20040;-82
2023/05/04 04:48:37;;;;;;;19.42;11.15;;;;;;;;;;5084167;28;20068;-81
2023/05/04 04:51:04;;;;;;;18.00;9.57;;;;;;;;;;5083404;28;20051;-83
2023/05/04 04:53:30;;;;;;;17.05;10.05;;;;;;;;;;5082844;28;20127;-82
2023/05/04 04:55:57;;;;;;;17.80;9.85;;;;;;;;;;5084402;28;20091;-81
2023/05/04 04:58:23;;;;;;;18.92;9.98;;;;;;;;;;5082188;28;20055;-82
2023/05/04 05:00:51;;;;;;;15.38;9.43;;;;;;;;;;5082096;28;20053;-82
2023/05/04 05:03:17;;;;;;;16.25;9.25;;;;;;;;;;5082883;28;20056;-82
2023/05/04 05:05:43;;;;;;;18.45;9.90;;;;;;;;;;5063618;28;20045;-82
2023/05/04 05:08:10;;;;;;;16.00;9.48;;;;;;;;;;5063976;28;20044;-82
2023/05/04 05:10:36;;;;;;;16.85;9.23;;;;;;;;;;5080731;28;20052;-83
2023/05/04 05:13:02;;;;;;;14.80;9.43;;;;;;;;;;5083741;28;20041;-82
2023/05/04 05:15:28;;;;;;;17.35;10.07;;;;;;;;;;5084123;28;20076;-82
2023/05/04 05:17:55;;;;;;;23.05;10.45;;;;;;;;;;5089508;28;20036;-82
2023/05/04 05:20:22;;;;;;;17.52;10.10;;;;;;;;;;5102431;28;20072;-81
2023/05/04 05:22:48;;;;;;;12.65;9.38;;;;;;;;;;5103941;28;20040;-82
2023/05/04 05:25:14;;;;;;;17.77;10.02;;;;;;;;;;5103297;28;20052;-82
2023/05/04 05:27:40;;;;;;;15.27;10.13;;;;;;;;;;5085428;28;20055;-82
2023/05/04 05:30:07;;;;;;;15.88;9.55;;;;;;;;;;5083366;28;20040;-81
2023/05/04 05:32:33;;;;;;;17.27;9.85;;;;;;;;;;5076784;28;20547;-82
2023/05/04 05:34:59;;;;;;;16.92;9.57;;;;;;;;;;5079858;28;20050;-82
2023/05/04 05:37:26;;;;;;;19.25;9.90;;;;;;;;;;5083151;28;20045;-83
2023/05/04 05:39:52;;;;;;;14.80;9.70;;;;;;;;;;5082413;28;20052;-81
2023/05/04 05:42:19;;;;;;;15.32;9.65;;;;;;;;;;5082815;28;20033;-82
2023/05/04 05:44:45;;;;;;;17.38;9.73;;;;;;;;;;5086936;28;20049;-80
2023/05/04 05:47:11;;;;;;;19.98;10.00;;;;;;;;;;5075399;28;20045;-82
2023/05/04 05:49:37;;;;;;;15.85;9.85;;;;;;;;;;5082336;28;20119;-82
2023/05/04 05:52:03;;;;;;;15.55;9.73;;;;;;;;;;5081412;28;20052;-82
2023/05/04 05:54:32;;;;;;;16.52;9.50;;;;;;;;;;5081592;28;20041;-82
2023/05/04 05:56:59;;;;;;;18.52;9.48;;;;;;;;;;5082365;28;20044;-82
2023/05/04 05:59:25;;;;;;;20.05;10.00;;;;;;;;;;5074423;28;20037;-81
2023/05/04 06:01:51;;;;;;;17.08;9.52;;;;;;;;;;5080303;28;20036;-82
2023/05/04 06:04:17;;;;;;;17.80;9.07;;;;;;;;;;5080871;28;20048;-81
2023/05/04 06:06:43;;;;;;;15.07;9.13;;;;;;;;;;5069579;28;20105;-82
2023/05/04 06:09:09;;;;;;;15.07;8.98;;;;;;;;;;5068087;28;20076;-82
2023/05/04 06:11:35;;;;;;;18.00;9.57;;;;;;;;;;5081277;28;20098;-81
2023/05/04 06:14:01;;;;;;;15.55;9.40;;;;;;;;;;5082058;28;20045;-82
2023/05/04 06:16:27;;;;;;;16.52;9.25;;;;;;;;;;5080180;28;20097;-82
2023/05/04 06:18:53;;;;;;;15.55;8.73;;;;;;;;;;5079444;28;20486;-83
2023/05/04 06:21:20;;;;;;;15.43;9.02;;;;;;;;;;5074836;28;20051;-82
2023/05/04 06:23:46;;;;;;;16.73;9.45;;;;;;;;;;5072872;28;20053;-82
2023/05/04 06:26:12;;;;;;;15.48;9.68;;;;;;;;;;5078963;28;20503;-83
2023/05/04 06:28:38;;;;;;;16.20;9.18;;;;;;;;;;5079575;28;20384;-82
2023/05/04 06:31:04;;;;;;;14.13;9.02;;;;;;;;;;5081919;28;20041;-82
2023/05/04 06:33:30;;;;;;;15.05;9.55;;;;;;;;;;5081470;28;20399;-82
2023/05/04 06:35:57;;;;;;;10.15;7.40;;;;;;;;;;5080603;28;20051;-82
2023/05/04 06:38:23;;;;;;;15.00;8.65;;;;;;;;;;5078797;28;20102;-83
2023/05/04 06:40:49;;;;;;;12.98;8.55;;;;;;;;;;5062143;28;20073;-83
2023/05/04 06:43:15;;;;;;;15.27;8.93;;;;;;;;;;5073880;28;20041;-83
2023/05/04 06:45:42;;;;;;;14.63;8.18;;;;;;;;;;5061885;28;20048;-82
2023/05/04 06:48:08;;;;;;;14.77;8.43;;;;;;;;;;5061485;28;20155;-82
2023/05/04 06:50:35;;;;;;;15.98;8.50;;;;;;;;;;5077138;28;20124;-82
2023/05/04 06:53:07;;;;;;;14.10;8.57;;;;;;;;;;5082943;28;20084;-81
2023/05/04 06:55:33;;;;;;;12.50;7.85;;;;;;;;;;5087761;28;20036;-81
2023/05/04 06:57:59;;;;;;;15.90;7.90;;;;;;;;;;5086254;28;20044;-82
2023/05/04 07:00:26;;;;;;;13.18;8.23;;;;;;;;;;5080726;28;20406;-82
2023/05/04 07:02:52;;;;;;;16.38;8.38;;;;;;;;;;5079366;28;20074;-82
2023/05/04 07:05:20;;;;;;;12.35;7.68;;;;;;;;;;5090008;28;20040;-82
2023/05/04 07:07:46;;;;;;;16.90;8.77;;;;;;;;;;5093769;28;20048;-82
2023/05/04 07:10:13;;;;;;;13.43;8.30;;;;;;;;;;5094994;28;20072;-82
2023/05/04 07:12:40;;;;;;;14.55;8.15;;;;;;;;;;5085038;28;20049;-82
2023/05/04 07:15:07;;;;;;;13.88;7.55;;;;;;;;;;5079937;28;20079;-82
2023/05/04 07:17:33;;;;;;;12.80;7.95;;;;;;;;;;5080577;28;20059;-85
2023/05/04 07:20:03;;;;;;;12.02;8.13;;;;;;;;;;5079541;28;20056;-82
2023/05/04 07:22:30;;;;;;;13.57;7.65;;;;;;;;;;5080425;28;20071;-82
2023/05/04 07:24:59;;;;;;;10.82;7.13;;;;;;;;;;5079231;28;20136;-81
2023/05/04 07:27:25;;;;;;;13.15;7.30;;;;;;;;;;5079662;28;20059;-82
2023/05/04 07:29:51;;;;;;;11.13;7.18;;;;;;;;;;5077794;28;20135;-82
2023/05/04 07:32:17;;;;;;;16.50;7.93;;;;;;;;;;5080001;28;20074;-82
2023/05/04 07:34:43;;;;;;;14.27;7.07;;;;;;;;;;5075433;28;20131;-82
2023/05/04 07:37:09;;;;;;;13.57;7.70;;;;;;;;;;5073859;28;20048;-81
2023/05/04 07:39:35;;;;;;;14.90;7.25;;;;;;;;;;5074326;28;20047;-82
2023/05/04 07:42:03;;;;;;;12.80;7.03;;;;;;;;;;5075795;28;20041;-81
2023/05/04 07:44:30;;;;;;;15.40;7.00;;;;;;;;;;5073376;28;20094;-82
2023/05/04 07:46:57;;;;;;;12.15;6.90;;;;;;;;;;5067517;28;20045;-83
2023/05/04 07:49:23;;;;;;;15.40;6.38;;;;;;;;;;5074324;28;20040;-88
2023/05/04 07:51:49;;;;;;;11.05;6.22;;;;;;;;;;5088188;28;20055;-81
2023/05/04 07:54:15;;;;;;;11.43;6.45;;;;;;;;;;5082461;28;20053;-83
2023/05/04 07:56:41;;;;;;;14.43;6.45;;;;;;;;;;5077208;28;20395;-83
2023/05/04 07:59:07;;;;;;;13.63;6.03;;;;;;;;;;5074641;28;20071;-83
2023/05/04 08:01:33;;;;;;;11.23;6.53;;;;;;;;;;5076078;28;20067;-83
2023/05/04 08:04:00;;;;;;;12.70;6.55;;;;;;;;;;5062967;28;20404;-83
2023/05/04 08:06:26;;;;;;;11.73;6.88;;;;;;;;;;5063071;28;20047;-83
2023/05/04 08:08:52;;;;;;;14.57;6.70;;;;;;;;;;5076114;28;20040;-83
2023/05/04 08:11:18;;;;;;;14.50;6.68;;;;;;;;;;5079800;28;20052;-83
2023/05/04 08:13:45;;;;;;;11.85;6.60;;;;;;;;;;5081419;28;20048;-84
2023/05/04 08:16:11;;;;;;;12.18;6.57;;;;;;;;;;5079367;28;20048;-81
2023/05/04 08:18:37;;;;;;;11.20;6.57;;;;;;;;;;5079000;28;20040;-83
2023/05/04 08:21:04;;;;;;;14.10;6.80;;;;;;;;;;5081540;28;20044;-81
2023/05/04 08:23:31;;;;;;;12.50;6.85;;;;;;;;;;5079720;28;20045;-83
2023/05/04 08:25:57;;;;;;;11.00;6.47;;;;;;;;;;5081427;28;20053;-82
2023/05/04 08:28:23;;;;;;;10.80;6.55;;;;;;;;;;5079006;28;20045;-82
2023/05/04 08:30:49;;;;;;;12.57;6.40;;;;;;;;;;5081553;28;20089;-82
2023/05/04 08:33:15;;;;;;;11.70;6.85;;;;;;;;;;5081923;28;20465;-82
2023/05/04 08:35:42;;;;;;;11.45;6.88;;;;;;;;;;5080281;28;20071;-82
2023/05/04 08:38:08;;;;;;;11.77;6.28;;;;;;;;;;5080236;28;20479;-81
2023/05/04 08:40:34;;;;;;;14.32;7.43;;;;;;;;;;5080832;28;20418;-83
2023/05/04 08:43:01;;;;;;;11.45;7.43;;;;;;;;;;5078867;28;20051;-83
2023/05/04 08:45:27;;;;;;;15.18;6.70;;;;;;;;;;5077857;28;20095;-81
2023/05/04 08:47:53;;;;;;;10.45;6.30;;;;;;;;;;5080099;28;20144;-82
2023/05/04 08:50:20;;;;;;;13.85;6.10;;;;;;;;;;5078586;28;20051;-82
2023/05/04 08:52:46;;;;;;;16.42;6.28;;;;;;;;;;5081253;28;20122;-83
2023/05/04 08:55:13;;;;;;;13.77;7.35;;;;;;;;;;5081949;28;20479;-82
2023/05/04 08:57:41;;;;;;;13.27;6.85;;;;;;;;;;5080472;28;20041;-82
2023/05/04 09:00:07;;;;;;;14.40;6.47;;;;;;;;;;5079218;28;20059;-82
2023/05/04 09:02:34;;;;;;;15.70;7.78;;;;;;;;;;5077598;28;20051;-81
2023/05/04 09:05:00;;;;;;;13.32;6.50;;;;;;;;;;5061092;28;20057;-82
2023/05/04 09:07:27;;;;;;;14.20;6.18;;;;;;;;;;5062328;28;20068;-82
2023/05/04 09:09:53;;;;;;;11.95;6.28;;;;;;;;;;5071858;28;20041;-81
2023/05/04 09:12:19;;;;;;;8.57;5.70;;;;;;;;;;5077495;28;20092;-82
2023/05/04 09:14:46;;;;;;;13.30;6.57;;;;;;;;;;5087220;28;20142;-82
2023/05/04 09:17:13;;;;;;;16.10;6.40;;;;;;;;;;5077699;28;20057;-81
2023/05/04 09:19:42;;;;;;;12.38;6.55;;;;;;;;;;5073736;28;20089;-82
2023/05/04 09:22:18;;;;;;;10.60;5.75;;;;;;;;;;5097309;28;20040;-82
2023/05/04 09:24:45;;;;;;;16.15;6.18;;;;;;;;;;5092040;28;20047;-84
2023/05/04 09:27:12;;;;;;;12.65;6.25;;;;;;;;;;5084191;28;20045;-82
2023/05/04 09:29:39;;;;;;;13.27;6.13;;;;;;;;;;5086057;28;20052;-81
2023/05/04 09:32:06;;;;;;;13.63;6.20;;;;;;;;;;5088582;28;20048;-83
2023/05/04 09:34:33;;;;;;;15.40;6.75;;;;;;;;;;5087042;28;20098;-82
2023/05/04 09:37:00;;;;;;;11.55;6.47;;;;;;;;;;5080944;28;20048;-82
2023/05/04 09:39:26;;;;;;;12.20;5.90;;;;;;;;;;5081541;28;20057;-82
2023/05/04 09:41:53;;;;;;;12.05;6.00;;;;;;;;;;5082555;28;20387;-82
2023/05/04 09:44:22;;;;;;;11.68;6.03;;;;;;;;;;5081766;28;20530;-83
2023/05/04 09:46:53;;;;;;;14.23;6.30;;;;;;;;;;5080744;28;20040;-81
2023/05/04 09:49:28;;;;;;;14.73;6.38;;;;;;;;;;5081308;28;20071;-82
2023/05/04 09:51:55;;;;;;;12.50;6.38;;;;;;;;;;5081034;28;20049;-82
2023/05/04 09:54:21;;;;;;;15.55;5.80;;;;;;;;;;5081922;28;20403;-82
2023/05/04 09:56:49;;;;;;;11.15;5.80;;;;;;;;;;5085322;28;20092;-82
2023/05/04 09:59:15;;;;;;;16.35;6.03;;;;;;;;;;5085600;28;20380;-83
2023/05/04 10:01:41;;;;;;;12.15;5.75;;;;;;;;;;5086782;28;20044;-82
2023/05/04 10:04:08;;;;;;;12.60;6.85;;;;;;;;;;5084469;28;20040;-82
2023/05/04 10:06:34;;;;;;;13.65;5.88;;;;;;;;;;5082303;28;20075;-82
2023/05/04 10:09:01;;;;;;;10.65;5.60;;;;;;;;;;5082046;28;20542;-82
2023/05/04 10:11:28;;;;;;;12.30;6.18;;;;;;;;;;5081518;28;20037;-83
2023/05/04 10:13:58;;;;;;;15.75;5.82;;;;;;;;;;5081496;28;20076;-82
2023/05/04 10:16:27;;;;;;;15.70;5.80;;;;;;;;;;5077786;28;20111;-82
2023/05/04 10:19:02;;;;;;;11.43;5.40;;;;;;;;;;5080040;28;20051;-82
2023/05/04 10:21:29;;;;;;;13.95;5.50;;;;;;;;;;5081339;28;20067;-82
2023/05/04 10:24:10;;;;;;;13.30;5.38;;;;;;;;;;5079084;28;20515;-83
2023/05/04 10:26:36;;;;;;;;;;;;;;;;;;5081426;28;20167;-81
2023/05/04 10:29:05;;;;;;;9.55;4.93;;;;;;;;;;5080795;28;19921;-82
2023/05/04 10:31:41;;;;;;;11.98;5.00;;;;;;;;;;5080727;28;20071;-82
2023/05/04 10:34:07;;;;;;;11.18;5.10;;;;;;;;;;5081203;28;20071;-81
2023/05/04 10:36:37;;;;;;;12.68;4.20;;;;;;;;;;5081544;28;20043;-82
2023/05/04 10:39:04;;;;;;;10.77;5.10;;;;;;;;;;5079482;28;20109;-82
2023/05/04 10:41:31;;;;;;;10.07;4.65;;;;;;;;;;5081604;28;20076;-81
2023/05/04 10:44:04;;;;;;;10.43;4.40;;;;;;;;;;5081214;28;20055;-82
2023/05/04 10:46:30;;;;;;;12.25;5.20;;;;;;;;;;5079441;28;20127;-82
2023/05/04 10:48:56;;;;;;;9.38;5.00;;;;;;;;;;5076914;28;20059;-83
2023/05/04 10:51:23;;;;;;;11.27;5.15;;;;;;;;;;5075336;28;20069;-84
2023/05/04 10:53:50;;;;;;;13.77;5.93;;;;;;;;;;5075584;28;20086;-82
2023/05/04 10:56:22;;;;;;;10.68;4.28;;;;;;;;;;5080576;28;20560;-82
2023/05/04 10:58:48;;;;;;;12.07;5.03;;;;;;;;;;5080373;28;20461;-84
2023/05/04 11:01:15;;;;;;;8.85;4.80;;;;;;;;;;5080156;28;20037;-82
2023/05/04 11:03:41;;;;;;;9.70;4.40;;;;;;;;;;5080240;28;20052;-82
2023/05/04 11:06:23;;;;;;;11.88;4.45;;;;;;;;;;5080219;28;20040;-82
2023/05/04 11:08:58;;;;;;;10.63;4.47;;;;;;;;;;5082555;28;20039;-82
2023/05/04 11:11:24;;;;;;;11.70;4.38;;;;;;;;;;5080734;28;20043;-81
2023/05/04 11:13:50;;;;;;;12.68;4.30;;;;;;;;;;5079725;28;20101;-81
2023/05/04 11:16:23;;;;;;;12.18;4.43;;;;;;;;;;5079814;28;20049;-83
2023/05/04 11:18:49;;;;;;;11.70;4.35;;;;;;;;;;5080916;28;20123;-83
2023/05/04 11:21:24;;;;;;;10.88;4.30;;;;;;;;;;5078768;28;20478;-83
2023/05/04 11:24:01;;;;;;;11.30;4.93;;;;;;;;;;5079855;28;20041;-84
2023/05/04 11:26:27;;;;;;;9.88;4.05;;;;;;;;;;5081194;28;20052;-82
2023/05/04 11:28:53;;;;;;;11.13;4.00;;;;;;;;;;5080604;28;20044;-81
2023/05/04 11:31:20;;;;;;;9.48;3.95;;;;;;;;;;5075830;28;20102;-82
2023/05/04 11:33:48;;;;;;;10.18;4.32;;;;;;;;;;5078074;28;20040;-80
2023/05/04 11:36:14;;;;;;;9.10;3.95;;;;;;;;;;5079915;28;20047;-80
2023/05/04 11:38:41;;;;;;;10.52;4.28;;;;;;;;;;5079162;28;20040;-81
2023/05/04 11:41:07;;;;;;;9.43;3.47;;;;;;;;;;5078345;28;20083;-81
2023/05/04 11:43:34;;;;;;;9.35;4.40;;;;;;;;;;5082326;28;20485;-81
2023/05/04 11:46:01;;;;;;;10.95;4.00;;;;;;;;;;5090641;28;20124;-80
2023/05/04 11:48:28;;;;;;;7.38;3.70;;;;;;;;;;5081299;28;20052;-82
2023/05/04 11:50:55;;;;;;;9.30;3.88;;;;;;;;;;5079894;28;20055;-81
2023/05/04 11:53:22;;;;;;;9.38;4.32;;;;;;;;;;5078968;28;20045;-81
2023/05/04 11:55:48;;;;;;;9.52;4.63;;;;;;;;;;5080916;28;20114;-81
2023/05/04 11:58:14;;;;;;;10.13;4.25;;;;;;;;;;5080760;28;20494;-82
2023/05/04 12:00:42;;;;;;;8.30;4.30;;;;;;;;;;5082052;28;20047;-80
2023/05/04 12:03:09;;;;;;;9.57;4.07;;;;;;;;;;5080790;28;20120;-82
2023/05/04 12:05:35;;;;;;;9.00;3.85;;;;;;;;;;5085272;28;20059;-82
2023/05/04 12:08:02;;;;;;;8.70;3.95;;;;;;;;;;5082855;28;20076;-81
2023/05/04 12:10:34;;;;;;;11.93;3.80;;;;;;;;;;5083386;28;20040;-81
2023/05/04 12:13:00;;;;;;;8.38;4.00;;;;;;;;;;5082993;28;20384;-81
2023/05/04 12:15:36;;;;;;;10.52;4.20;;;;;;;;;;5084604;28;20074;-81
2023/05/04 12:18:02;;;;;;;9.73;3.65;;;;;;;;;;5083310;28;20041;-81
2023/05/04 12:20:29;;;;;;;8.50;3.40;;;;;;;;;;5082431;28;20037;-81
2023/05/04 12:22:56;;;;;;;9.50;3.63;;;;;;;;;;5080306;28;20040;-81
2023/05/04 12:25:22;;;;;;;10.90;4.10;;;;;;;;;;5080913;28;20487;-81
2023/05/04 12:27:48;;;;;;;8.32;3.72;;;;;;;;;;5081981;28;20048;-81
2023/05/04 12:30:14;;;;;;;6.32;3.10;;;;;;;;;;5079323;28;20123;-82
2023/05/04 12:32:43;;;;;;;8.73;3.40;;;;;;;;;;5080897;28;20047;-82
2023/05/04 12:35:10;;;;;;;10.07;3.58;;;;;;;;;;5079726;28;20040;-83
2023/05/04 12:37:37;;;;;;;9.85;3.60;;;;;;;;;;5078356;28;20037;-82
2023/05/04 12:40:03;;;;;;;8.38;3.83;;;;;;;;;;5079895;28;20052;-81
2023/05/04 12:42:30;;;;;;;9.95;3.95;;;;;;;;;;5049267;28;20067;-82
2023/05/04 12:44:57;;;;;;;8.85;3.60;;;;;;;;;;5069794;28;20525;-82
2023/05/04 12:47:24;;;;;;;8.70;3.40;;;;;;;;;;5078062;28;20074;-82
2023/05/04 12:49:51;;;;;;;7.22;3.45;;;;;;;;;;5078509;28;20033;-81
2023/05/04 12:52:17;;;;;;;9.00;4.28;;;;;;;;;;5076654;28;20052;-82
2023/05/04 12:54:43;;;;;;;11.48;3.72;;;;;;;;;;5078492;28;20108;-81
2023/05/04 12:57:11;;;;;;;11.05;4.05;;;;;;;;;;5081821;28;20052;-83
2023/05/04 12:59:37;;;;;;;9.73;4.50;;;;;;;;;;5077552;28;20045;-82
2023/05/04 13:02:03;;;;;;;8.30;4.45;;;;;;;;;;5063922;28;20045;-82
2023/05/04 13:04:29;;;;;;;9.00;3.78;;;;;;;;;;5078436;28;20131;-81
2023/05/04 13:06:55;;;;;;;9.52;4.38;;;;;;;;;;5082073;28;20098;-81
2023/05/04 13:09:21;;;;;;;11.00;4.35;;;;;;;;;;5084777;28;20040;-82
2023/05/04 13:11:48;;;;;;;12.02;4.78;;;;;;;;;;5082018;28;20402;-82
2023/05/04 13:14:14;;;;;;;8.25;4.10;;;;;;;;;;5084089;28;20040;-81
2023/05/04 13:16:40;;;;;;;11.68;4.22;;;;;;;;;;5082534;28;20055;-81
2023/05/04 13:19:06;;;;;;;9.35;4.03;;;;;;;;;;5083512;28;20044;-81
2023/05/04 13:21:32;;;;;;;11.20;4.25;;;;;;;;;;5082361;28;20508;-81
2023/05/04 13:23:59;;;;;;;8.98;4.28;;;;;;;;;;5082417;28;20047;-80
2023/05/04 13:26:25;;;;;;;11.93;3.97;;;;;;;;;;5078883;28;20171;-82
2023/05/04 13:28:51;;;;;;;9.60;3.88;;;;;;;;;;5081208;28;20037;-81
2023/05/04 13:31:18;;;;;;;11.50;4.32;;;;;;;;;;5081123;28;20056;-82
2023/05/04 13:33:45;;;;;;;11.32;4.25;;;;;;;;;;5079282;28;20048;-81
2023/05/04 13:36:11;;;;;;;8.70;4.03;;;;;;;;;;5080662;28;20449;-82
2023/05/04 13:38:38;;;;;;;8.18;3.60;;;;;;;;;;5080256;28;20036;-80
2023/05/04 13:41:04;;;;;;;11.45;4.35;;;;;;;;;;5079853;28;20040;-82
2023/05/04 13:43:30;;;;;;;11.73;4.35;;;;;;;;;;5076528;28;20056;-82
2023/05/04 13:45:56;;;;;;;11.07;4.13;;;;;;;;;;5077961;28;20051;-82
2023/05/04 13:48:24;;;;;;;9.50;4.28;;;;;;;;;;5080819;28;20086;-81
2023/05/04 13:50:51;;;;;;;8.55;3.83;;;;;;;;;;5077278;28;20050;-81
2023/05/04 13:53:17;;;;;;;14.98;4.13;;;;;;;;;;5074856;28;20085;-82
2023/05/04 13:55:43;;;;;;;10.38;3.90;;;;;;;;;;5077813;28;20048;-81
2023/05/04 13:58:09;;;;;;;10.15;3.65;;;;;;;;;;5075611;28;20162;-83
2023/05/04 14:00:35;;;;;;;9.63;3.83;;;;;;;;;;5081718;28;20056;-81
2023/05/04 14:03:02;;;;;;;8.68;3.85;;;;;;;;;;5081805;28;20048;-82
2023/05/04 14:05:28;;;;;;;11.15;4.22;;;;;;;;;;5081482;28;20124;-81
2023/05/04 14:07:54;;;;;;;11.25;3.83;;;;;;;;;;5080564;28;20044;-82
2023/05/04 14:10:20;;;;;;;6.85;3.55;;;;;;;;;;5081798;28;20479;-81
2023/05/04 14:12:46;;;;;;;8.43;3.42;;;;;;;;;;5079529;28;20051;-81
2023/05/04 14:15:12;;;;;;;10.05;3.97;;;;;;;;;;5063613;28;20041;-82
2023/05/04 14:17:38;;;;;;;8.65;3.80;;;;;;;;;;5077616;28;20044;-83
2023/05/04 14:20:05;;;;;;;13.10;3.72;;;;;;;;;;5085327;28;20046;-81
2023/05/04 14:22:31;;;;;;;7.90;3.45;;;;;;;;;;5086415;28;20052;-81
2023/05/04 14:24:58;;;;;;;8.27;3.30;;;;;;;;;;5082533;28;20047;-82
2023/05/04 14:27:24;;;;;;;10.73;4.05;;;;;;;;;;5083528;28;20051;-82